Terminal Aerodrome Forecast
Issued by NWS

Home | Current Version | Previous Version | Text Only | Print | Product List | Glossary On
Versions: 1 2 3 4 5 6 7 8 9 10 11 12 13 14 15 16 17 18 19 20 21 22 23 24
102
FTUS43 KILX 281746
TAFBMI
TAF
KBMI 281746Z 2818/2918 03009KT P6SM OVC015
     FM282000 03009KT P6SM OVC025
     FM290300 05008KT 6SM BR OVC015
     FM290700 06012KT 4SM BR OVC006
     FM291500 08014KT P6SM OVC015=

USA.gov is the U.S. government's official web portal to all federal, state and local government web resources and services.